Meerssen, Netherlands
Current Conditions -  °F | °C
As of 2:25 AM on Wednesday 28 Jan 2015 (Local Time) from EHBK Reporting Station
Haze Haze  
Wind Chill: 32°   Ceiling: 500
Heat Index: 39°   Visibility: 2.1mi
Dew Point: 37°   Wind: 10mph
Humidity: 93%   Direction: 200°SSW
Pressure: 30.12"   Gusts: NA
Location:  50.89°N, 5.75°E
Report Text: EHBK 280125Z AUTO 20009KT 3400 BR OVC005 04/03 Q1020
Loading
Personal Weather Stations






























Interactive Weather Map New forecast layout! Learn more

10-Day Weather Forecast

Advertisements
Track Severe Weather on mobile